Accueil
METAR-TAF:

METAR-TAF

Aéroports :

Cascais, Portugal

latitude: 38-43-32N, longitude: 009-21-19W, altitude: 99 m

Observation

Le bulletin a été fait il y a 16 minutes, à 08:30 UTC
Vent 5 kt de ouest/sud-ouest
Température 24°C
Humidité 65%
Pression 1015 hPa
Visibilité 10 km ou plus
pas de nuages en-dessous de 1500 mètres et pas de cumulonimbus.

METAR: LPCS 290830Z 25005KT CAVOK 24/17 Q1015

Heure: 09:46 (08:46 UTC)

Prévision

Le bulletin a été fait il y a 46 minutes, à 08:00 UTC
Prévision valable du 29 à 09 UTC au 29 à 18 UTC
Vent 2 kt de direction variable
Visibilité 10 km ou plus
pas de nuages en-dessous de 1500 mètres et pas de cumulonimbus.
Evoluant progressivement
du 29 à 12 UTC au 29 à 15 UTC
Vent 13 kt de nord-ouest

TAF: LPCS 290800Z 2909/2918 VRB02KT CAVOK BECMG 2912/2915 32013KT

Observations et prévisions météorologiques de plus de 4000 aéroports (messages METAR et TAF).

Les stations disponibles sont représentées par des disques jaunes et rouges sur la carte.

Passer la souris dessus pour voir le nom de la station.

Cliquer dessus pour voir les observations et prévisions météorologiques.

Pour changer de carte: cliquez sur les boutons verts avec une croix noire pour zoomer, sur le bouton vert avec un tiret pour effectuer un zoom arrière, ou sur les flèches vertes pour les cartes adjacentes.


METAR-TAF: